In Rescue
 
Open Full Screen Window  High Contrast Mode
Wind Gusting 15 knots
11
November 27, 2020 11:42 PM EST
Weather Information
Wind Direction
  270 °
Wind Speed
  11 kt (13 mph)
Wind Gust
  15 kt (17 mph)
Altimeter
29.99 in
Visibility
10 SM
Temperature
03° C
37° F
Dewpoint
-04° C
25° F
Humidity
60%
Sky Condition
Overcast @ 4,700 ft
Scattered @ 4,100 ft
Scattered @ 3,300 ft
VFR

METAR KCVX 280442Z AUTO 27011G15KT 10SM SCT033 SCT041 OVC047 03/M04 A2999 RMK AO2 T00301039

FAA Disclaimer: The data displayed is for advisory purposes only and is not to be used for flight planning or operations.